New Johannesburg, Wisconsin
Current Conditions -  °F | °C
As of 5:35 AM on Friday 24 Oct 2014 (Local Time) from KRNH Reporting Station
Haze Haze  
Wind Chill:   Ceiling: 200
Heat Index:   Visibility: 2.5mi
Dew Point:   Wind: 3mph
Humidity: 100%   Direction: 120°ESE
Pressure: 29.96"   Gusts: NA
Location:  45.1804°N, 92.551°W
Report Text: KRNH 241035Z AUTO 12003KT 2 1/2SM BR OVC002 08/08 A2996 RMK AO2 T00800080
Loading
Personal Weather Stations






























Interactive Weather Map
Tropical Storm Tracking
New forecast layout! Learn more

10-Day Weather Forecast

Advertisements
Track Severe Weather on mobile